sensor_id;sensor_type;location;lat;lon;timestamp;temperature;humidity
23748;DHT22;12054;53.662;10.126;2023-07-29T00:01:01;19.30;99.90
23748;DHT22;12054;53.662;10.126;2023-07-29T00:03:27;19.20;99.90
23748;DHT22;12054;53.662;10.126;2023-07-29T00:05:55;19.20;99.90
23748;DHT22;12054;53.662;10.126;2023-07-29T00:08:20;19.20;99.90
23748;DHT22;12054;53.662;10.126;2023-07-29T00:10:46;19.20;99.90
23748;DHT22;12054;53.662;10.126;2023-07-29T00:13:12;19.20;99.90
23748;DHT22;12054;53.662;10.126;2023-07-29T00:15:37;19.20;99.90
23748;DHT22;12054;53.662;10.126;2023-07-29T00:18:03;19.10;99.90
23748;DHT22;12054;53.662;10.126;2023-07-29T00:20:28;19.10;99.90
23748;DHT22;12054;53.662;10.126;2023-07-29T00:22:54;19.10;99.90
23748;DHT22;12054;53.662;10.126;2023-07-29T00:25:20;19.10;99.90
23748;DHT22;12054;53.662;10.126;2023-07-29T00:27:46;19.10;99.90
23748;DHT22;12054;53.662;10.126;2023-07-29T00:30:11;19.10;99.90
23748;DHT22;12054;53.662;10.126;2023-07-29T00:32:37;19.10;99.90
23748;DHT22;12054;53.662;10.126;2023-07-29T00:35:03;19.00;99.90
23748;DHT22;12054;53.662;10.126;2023-07-29T00:37:29;19.00;99.90
23748;DHT22;12054;53.662;10.126;2023-07-29T00:39:55;19.00;99.90
23748;DHT22;12054;53.662;10.126;2023-07-29T00:42:21;19.00;99.90
23748;DHT22;12054;53.662;10.126;2023-07-29T00:44:46;19.00;99.90
23748;DHT22;12054;53.662;10.126;2023-07-29T00:47:12;18.90;99.90
23748;DHT22;12054;53.662;10.126;2023-07-29T00:49:40;18.90;99.90
23748;DHT22;12054;53.662;10.126;2023-07-29T00:52:06;18.90;99.90
23748;DHT22;12054;53.662;10.126;2023-07-29T00:54:31;18.90;99.90
23748;DHT22;12054;53.662;10.126;2023-07-29T00:56:57;18.90;99.90
23748;DHT22;12054;53.662;10.126;2023-07-29T00:59:22;18.90;99.90
23748;DHT22;12054;53.662;10.126;2023-07-29T01:01:48;18.80;99.90
23748;DHT22;12054;53.662;10.126;2023-07-29T01:04:14;18.80;99.90
23748;DHT22;12054;53.662;10.126;2023-07-29T01:07:07;18.80;99.90
23748;DHT22;12054;53.662;10.126;2023-07-29T01:09:55;18.80;99.90
23748;DHT22;12054;53.662;10.126;2023-07-29T01:12:42;18.80;99.90
23748;DHT22;12054;53.662;10.126;2023-07-29T01:15:15;18.70;99.90
23748;DHT22;12054;53.662;10.126;2023-07-29T01:17:56;18.70;99.90
23748;DHT22;12054;53.662;10.126;2023-07-29T01:20:24;18.70;99.90
23748;DHT22;12054;53.662;10.126;2023-07-29T01:22:50;18.70;99.90
23748;DHT22;12054;53.662;10.126;2023-07-29T01:25:16;18.70;99.90
23748;DHT22;12054;53.662;10.126;2023-07-29T01:27:45;18.60;99.90
23748;DHT22;12054;53.662;10.126;2023-07-29T01:30:11;18.60;99.90
23748;DHT22;12054;53.662;10.126;2023-07-29T01:35:28;18.60;99.90
23748;DHT22;12054;53.662;10.126;2023-07-29T01:38:04;18.60;99.90
23748;DHT22;12054;53.662;10.126;2023-07-29T01:40:30;18.60;99.90
23748;DHT22;12054;53.662;10.126;2023-07-29T01:42:56;18.60;99.90
23748;DHT22;12054;53.662;10.126;2023-07-29T01:45:25;18.50;99.90
23748;DHT22;12054;53.662;10.126;2023-07-29T01:47:51;18.50;99.90
23748;DHT22;12054;53.662;10.126;2023-07-29T01:50:16;18.50;99.90
23748;DHT22;12054;53.662;10.126;2023-07-29T01:52:42;18.50;99.90
23748;DHT22;12054;53.662;10.126;2023-07-29T01:55:08;18.50;99.90
23748;DHT22;12054;53.662;10.126;2023-07-29T01:57:33;18.50;99.90
23748;DHT22;12054;53.662;10.126;2023-07-29T01:59:59;18.40;99.90
23748;DHT22;12054;53.662;10.126;2023-07-29T02:02:24;18.40;99.90
23748;DHT22;12054;53.662;10.126;2023-07-29T02:04:50;18.50;99.90
23748;DHT22;12054;53.662;10.126;2023-07-29T02:07:20;18.40;99.90
23748;DHT22;12054;53.662;10.126;2023-07-29T02:09:46;18.40;99.90
23748;DHT22;12054;53.662;10.126;2023-07-29T02:12:11;18.50;99.90
23748;DHT22;12054;53.662;10.126;2023-07-29T02:14:37;18.40;99.90
23748;DHT22;12054;53.662;10.126;2023-07-29T02:17:02;18.40;99.90
23748;DHT22;12054;53.662;10.126;2023-07-29T02:19:28;18.40;99.90
23748;DHT22;12054;53.662;10.126;2023-07-29T02:21:53;18.40;99.90
23748;DHT22;12054;53.662;10.126;2023-07-29T02:24:19;18.40;99.90
23748;DHT22;12054;53.662;10.126;2023-07-29T02:26:44;18.40;99.90
23748;DHT22;12054;53.662;10.126;2023-07-29T02:29:10;18.40;99.90
23748;DHT22;12054;53.662;10.126;2023-07-29T02:31:35;18.40;99.90
23748;DHT22;12054;53.662;10.126;2023-07-29T02:34:03;18.40;99.90
23748;DHT22;12054;53.662;10.126;2023-07-29T02:36:28;18.40;99.90
23748;DHT22;12054;53.662;10.126;2023-07-29T02:38:54;18.40;99.90
23748;DHT22;12054;53.662;10.126;2023-07-29T02:41:19;18.40;99.90
23748;DHT22;12054;53.662;10.126;2023-07-29T02:43:49;18.40;99.90
23748;DHT22;12054;53.662;10.126;2023-07-29T02:46:14;18.40;99.90
23748;DHT22;12054;53.662;10.126;2023-07-29T02:48:40;18.40;99.90
23748;DHT22;12054;53.662;10.126;2023-07-29T02:51:06;18.40;99.90
23748;DHT22;12054;53.662;10.126;2023-07-29T02:53:31;18.40;99.90
23748;DHT22;12054;53.662;10.126;2023-07-29T02:55:57;18.40;99.90
23748;DHT22;12054;53.662;10.126;2023-07-29T02:58:22;18.40;99.90
23748;DHT22;12054;53.662;10.126;2023-07-29T03:00:48;18.40;99.90
23748;DHT22;12054;53.662;10.126;2023-07-29T03:03:14;18.40;99.90
23748;DHT22;12054;53.662;10.126;2023-07-29T03:05:39;18.40;99.90
23748;DHT22;12054;53.662;10.126;2023-07-29T03:08:05;18.40;99.90
23748;DHT22;12054;53.662;10.126;2023-07-29T03:10:30;18.40;99.90
23748;DHT22;12054;53.662;10.126;2023-07-29T03:12:56;18.40;99.90
23748;DHT22;12054;53.662;10.126;2023-07-29T03:15:25;18.40;99.90
23748;DHT22;12054;53.662;10.126;2023-07-29T03:17:51;18.40;99.90
23748;DHT22;12054;53.662;10.126;2023-07-29T03:20:17;18.40;99.90
23748;DHT22;12054;53.662;10.126;2023-07-29T03:22:44;18.40;99.90
23748;DHT22;12054;53.662;10.126;2023-07-29T03:25:09;18.40;99.90
23748;DHT22;12054;53.662;10.126;2023-07-29T03:27:35;18.40;99.90
23748;DHT22;12054;53.662;10.126;2023-07-29T03:30:03;18.40;99.90
23748;DHT22;12054;53.662;10.126;2023-07-29T03:32:28;18.40;99.90
23748;DHT22;12054;53.662;10.126;2023-07-29T03:34:54;18.40;99.90
23748;DHT22;12054;53.662;10.126;2023-07-29T03:37:20;18.40;99.90
23748;DHT22;12054;53.662;10.126;2023-07-29T03:39:46;18.40;99.90
23748;DHT22;12054;53.662;10.126;2023-07-29T03:42:12;18.40;99.90
23748;DHT22;12054;53.662;10.126;2023-07-29T03:44:37;18.40;99.90
23748;DHT22;12054;53.662;10.126;2023-07-29T03:47:05;18.40;99.90
23748;DHT22;12054;53.662;10.126;2023-07-29T03:49:30;18.40;99.90
23748;DHT22;12054;53.662;10.126;2023-07-29T03:51:56;18.40;99.90
23748;DHT22;12054;53.662;10.126;2023-07-29T03:54:21;18.40;99.90
23748;DHT22;12054;53.662;10.126;2023-07-29T03:56:47;18.50;99.90
23748;DHT22;12054;53.662;10.126;2023-07-29T03:59:12;18.40;99.90
23748;DHT22;12054;53.662;10.126;2023-07-29T04:01:38;18.40;99.90
23748;DHT22;12054;53.662;10.126;2023-07-29T04:04:03;18.40;99.90
23748;DHT22;12054;53.662;10.126;2023-07-29T04:06:29;18.40;99.90
23748;DHT22;12054;53.662;10.126;2023-07-29T04:08:55;18.40;99.90
23748;DHT22;12054;53.662;10.126;2023-07-29T04:11:20;18.40;99.90
23748;DHT22;12054;53.662;10.126;2023-07-29T04:13:46;18.40;99.90
23748;DHT22;12054;53.662;10.126;2023-07-29T04:16:11;18.40;99.90
23748;DHT22;12054;53.662;10.126;2023-07-29T04:18:37;18.40;99.90
23748;DHT22;12054;53.662;10.126;2023-07-29T04:21:02;18.40;99.90
23748;DHT22;12054;53.662;10.126;2023-07-29T04:23:28;18.50;99.90
23748;DHT22;12054;53.662;10.126;2023-07-29T04:25:53;18.50;99.90
23748;DHT22;12054;53.662;10.126;2023-07-29T04:28:19;18.50;99.90
23748;DHT22;12054;53.662;10.126;2023-07-29T04:30:44;18.50;99.90
23748;DHT22;12054;53.662;10.126;2023-07-29T04:33:10;18.50;99.90
23748;DHT22;12054;53.662;10.126;2023-07-29T04:35:35;18.50;99.90
23748;DHT22;12054;53.662;10.126;2023-07-29T04:38:01;18.50;99.90
23748;DHT22;12054;53.662;10.126;2023-07-29T04:40:26;18.60;99.90
23748;DHT22;12054;53.662;10.126;2023-07-29T04:42:53;18.60;99.90
23748;DHT22;12054;53.662;10.126;2023-07-29T04:45:18;18.60;99.90
23748;DHT22;12054;53.662;10.126;2023-07-29T04:47:44;18.60;99.90
23748;DHT22;12054;53.662;10.126;2023-07-29T04:50:09;18.60;99.90
23748;DHT22;12054;53.662;10.126;2023-07-29T04:52:35;18.60;99.90
23748;DHT22;12054;53.662;10.126;2023-07-29T04:55:00;18.60;99.90
23748;DHT22;12054;53.662;10.126;2023-07-29T04:57:26;18.70;99.90
23748;DHT22;12054;53.662;10.126;2023-07-29T04:59:51;18.70;99.90
23748;DHT22;12054;53.662;10.126;2023-07-29T05:02:17;18.70;99.90
23748;DHT22;12054;53.662;10.126;2023-07-29T05:04:42;18.70;99.90
23748;DHT22;12054;53.662;10.126;2023-07-29T05:07:08;18.80;99.90
23748;DHT22;12054;53.662;10.126;2023-07-29T05:09:33;18.80;99.90
23748;DHT22;12054;53.662;10.126;2023-07-29T05:11:59;18.80;99.90
23748;DHT22;12054;53.662;10.126;2023-07-29T05:14:24;18.80;99.90
23748;DHT22;12054;53.662;10.126;2023-07-29T05:16:50;18.80;99.90
23748;DHT22;12054;53.662;10.126;2023-07-29T05:19:16;18.80;99.90
23748;DHT22;12054;53.662;10.126;2023-07-29T05:21:41;18.90;99.90
23748;DHT22;12054;53.662;10.126;2023-07-29T05:24:07;18.90;99.90
23748;DHT22;12054;53.662;10.126;2023-07-29T05:26:32;18.90;99.90
23748;DHT22;12054;53.662;10.126;2023-07-29T05:28:58;18.90;99.90
23748;DHT22;12054;53.662;10.126;2023-07-29T05:31:23;18.90;99.90
23748;DHT22;12054;53.662;10.126;2023-07-29T05:33:49;18.90;99.90
23748;DHT22;12054;53.662;10.126;2023-07-29T05:36:15;19.00;99.90
23748;DHT22;12054;53.662;10.126;2023-07-29T05:38:41;19.00;99.90
23748;DHT22;12054;53.662;10.126;2023-07-29T05:41:06;19.00;99.90
23748;DHT22;12054;53.662;10.126;2023-07-29T05:43:32;19.10;99.90
23748;DHT22;12054;53.662;10.126;2023-07-29T05:45:57;19.10;99.90
23748;DHT22;12054;53.662;10.126;2023-07-29T05:48:23;19.10;99.90
23748;DHT22;12054;53.662;10.126;2023-07-29T05:50:48;19.10;99.90
23748;DHT22;12054;53.662;10.126;2023-07-29T05:53:14;19.10;99.90
23748;DHT22;12054;53.662;10.126;2023-07-29T05:55:40;19.10;99.90
23748;DHT22;12054;53.662;10.126;2023-07-29T05:58:05;19.20;99.90
23748;DHT22;12054;53.662;10.126;2023-07-29T06:00:31;19.20;99.90
23748;DHT22;12054;53.662;10.126;2023-07-29T06:02:56;19.20;99.90
23748;DHT22;12054;53.662;10.126;2023-07-29T06:05:22;19.30;99.90
23748;DHT22;12054;53.662;10.126;2023-07-29T06:07:48;19.40;99.90
23748;DHT22;12054;53.662;10.126;2023-07-29T06:10:15;19.30;99.90
23748;DHT22;12054;53.662;10.126;2023-07-29T06:12:43;19.40;99.90
23748;DHT22;12054;53.662;10.126;2023-07-29T06:15:09;19.40;99.90
23748;DHT22;12054;53.662;10.126;2023-07-29T06:17:35;19.30;99.90
23748;DHT22;12054;53.662;10.126;2023-07-29T06:20:01;19.30;99.90
23748;DHT22;12054;53.662;10.126;2023-07-29T06:22:26;19.40;99.90
23748;DHT22;12054;53.662;10.126;2023-07-29T06:24:52;19.40;99.90
23748;DHT22;12054;53.662;10.126;2023-07-29T06:27:17;19.50;99.90
23748;DHT22;12054;53.662;10.126;2023-07-29T06:29:43;19.50;99.90
23748;DHT22;12054;53.662;10.126;2023-07-29T06:32:08;19.50;99.90
23748;DHT22;12054;53.662;10.126;2023-07-29T06:34:34;19.60;99.90
23748;DHT22;12054;53.662;10.126;2023-07-29T06:36:59;19.60;99.90
23748;DHT22;12054;53.662;10.126;2023-07-29T06:39:25;19.60;99.90
23748;DHT22;12054;53.662;10.126;2023-07-29T06:41:50;19.70;99.90
23748;DHT22;12054;53.662;10.126;2023-07-29T06:44:16;19.70;99.90
23748;DHT22;12054;53.662;10.126;2023-07-29T06:46:41;19.70;99.90
23748;DHT22;12054;53.662;10.126;2023-07-29T06:49:07;19.70;99.90
23748;DHT22;12054;53.662;10.126;2023-07-29T06:51:32;19.70;99.90
23748;DHT22;12054;53.662;10.126;2023-07-29T06:54:00;19.80;99.90
23748;DHT22;12054;53.662;10.126;2023-07-29T06:56:26;19.80;99.90
23748;DHT22;12054;53.662;10.126;2023-07-29T06:58:51;19.80;99.90
23748;DHT22;12054;53.662;10.126;2023-07-29T07:01:17;19.80;99.90
23748;DHT22;12054;53.662;10.126;2023-07-29T07:03:43;19.90;99.90
23748;DHT22;12054;53.662;10.126;2023-07-29T07:06:08;19.90;99.90
23748;DHT22;12054;53.662;10.126;2023-07-29T07:08:34;19.90;99.90
23748;DHT22;12054;53.662;10.126;2023-07-29T07:10:59;20.00;99.90
23748;DHT22;12054;53.662;10.126;2023-07-29T07:13:25;20.00;99.90
23748;DHT22;12054;53.662;10.126;2023-07-29T07:15:50;20.00;99.90
23748;DHT22;12054;53.662;10.126;2023-07-29T07:18:16;20.00;99.90
23748;DHT22;12054;53.662;10.126;2023-07-29T07:20:41;20.00;99.90
23748;DHT22;12054;53.662;10.126;2023-07-29T07:23:07;20.00;99.90
23748;DHT22;12054;53.662;10.126;2023-07-29T07:25:36;20.00;99.90
23748;DHT22;12054;53.662;10.126;2023-07-29T07:28:02;20.00;99.90
23748;DHT22;12054;53.662;10.126;2023-07-29T07:30:27;20.00;99.90
23748;DHT22;12054;53.662;10.126;2023-07-29T07:32:53;20.00;99.90
23748;DHT22;12054;53.662;10.126;2023-07-29T07:35:18;20.00;99.90
23748;DHT22;12054;53.662;10.126;2023-07-29T07:37:44;20.00;99.90
23748;DHT22;12054;53.662;10.126;2023-07-29T07:40:10;20.00;99.90
23748;DHT22;12054;53.662;10.126;2023-07-29T07:42:35;20.00;99.90
23748;DHT22;12054;53.662;10.126;2023-07-29T07:45:01;20.00;99.90
23748;DHT22;12054;53.662;10.126;2023-07-29T07:47:26;20.00;99.90
23748;DHT22;12054;53.662;10.126;2023-07-29T07:49:52;20.00;99.90
23748;DHT22;12054;53.662;10.126;2023-07-29T07:52:17;20.00;99.90
23748;DHT22;12054;53.662;10.126;2023-07-29T07:54:43;20.00;99.90
23748;DHT22;12054;53.662;10.126;2023-07-29T07:57:08;20.00;99.90
23748;DHT22;12054;53.662;10.126;2023-07-29T07:59:33;20.00;99.90
23748;DHT22;12054;53.662;10.126;2023-07-29T08:01:59;20.00;99.90
23748;DHT22;12054;53.662;10.126;2023-07-29T08:04:24;20.00;99.90
23748;DHT22;12054;53.662;10.126;2023-07-29T08:06:50;20.00;99.90
23748;DHT22;12054;53.662;10.126;2023-07-29T08:09:15;20.00;99.90
23748;DHT22;12054;53.662;10.126;2023-07-29T08:11:41;20.10;99.90
23748;DHT22;12054;53.662;10.126;2023-07-29T08:14:06;20.10;99.90
23748;DHT22;12054;53.662;10.126;2023-07-29T08:16:32;20.10;99.90
23748;DHT22;12054;53.662;10.126;2023-07-29T08:18:57;20.10;99.90
23748;DHT22;12054;53.662;10.126;2023-07-29T08:21:23;20.10;99.90
23748;DHT22;12054;53.662;10.126;2023-07-29T08:23:48;20.10;99.90
23748;DHT22;12054;53.662;10.126;2023-07-29T08:26:14;20.10;99.90
23748;DHT22;12054;53.662;10.126;2023-07-29T08:28:40;20.10;99.90
23748;DHT22;12054;53.662;10.126;2023-07-29T08:31:06;20.10;99.90
23748;DHT22;12054;53.662;10.126;2023-07-29T08:33:32;20.20;99.90
23748;DHT22;12054;53.662;10.126;2023-07-29T08:35:59;20.20;99.90
23748;DHT22;12054;53.662;10.126;2023-07-29T08:38:25;20.20;99.90
23748;DHT22;12054;53.662;10.126;2023-07-29T08:43:39;20.30;99.90
23748;DHT22;12054;53.662;10.126;2023-07-29T08:46:08;20.30;99.90
23748;DHT22;12054;53.662;10.126;2023-07-29T08:48:42;20.30;99.90
23748;DHT22;12054;53.662;10.126;2023-07-29T08:51:11;20.40;99.90
23748;DHT22;12054;53.662;10.126;2023-07-29T08:53:38;20.40;99.90
23748;DHT22;12054;53.662;10.126;2023-07-29T08:56:04;20.40;99.90
23748;DHT22;12054;53.662;10.126;2023-07-29T08:58:31;20.40;99.90
23748;DHT22;12054;53.662;10.126;2023-07-29T09:00:57;20.40;99.90
23748;DHT22;12054;53.662;10.126;2023-07-29T09:03:22;20.50;99.90
23748;DHT22;12054;53.662;10.126;2023-07-29T09:05:48;20.50;99.90
23748;DHT22;12054;53.662;10.126;2023-07-29T09:08:14;20.50;99.90
23748;DHT22;12054;53.662;10.126;2023-07-29T09:10:40;20.60;99.90
23748;DHT22;12054;53.662;10.126;2023-07-29T09:13:06;20.50;99.90
23748;DHT22;12054;53.662;10.126;2023-07-29T09:15:34;20.60;99.90
23748;DHT22;12054;53.662;10.126;2023-07-29T09:18:12;20.60;99.90
23748;DHT22;12054;53.662;10.126;2023-07-29T09:20:37;20.60;99.90
23748;DHT22;12054;53.662;10.126;2023-07-29T09:23:03;20.60;99.90
23748;DHT22;12054;53.662;10.126;2023-07-29T09:25:32;20.70;99.90
23748;DHT22;12054;53.662;10.126;2023-07-29T09:28:01;20.70;99.90
23748;DHT22;12054;53.662;10.126;2023-07-29T09:30:27;20.80;99.90
23748;DHT22;12054;53.662;10.126;2023-07-29T09:32:56;20.80;99.90
23748;DHT22;12054;53.662;10.126;2023-07-29T09:35:22;20.90;99.90
23748;DHT22;12054;53.662;10.126;2023-07-29T09:37:48;20.90;99.90
23748;DHT22;12054;53.662;10.126;2023-07-29T09:40:14;21.00;99.90
23748;DHT22;12054;53.662;10.126;2023-07-29T09:42:50;21.00;99.90
23748;DHT22;12054;53.662;10.126;2023-07-29T09:45:26;21.00;99.90
23748;DHT22;12054;53.662;10.126;2023-07-29T09:47:53;21.10;99.90
23748;DHT22;12054;53.662;10.126;2023-07-29T09:50:23;21.20;99.90
23748;DHT22;12054;53.662;10.126;2023-07-29T09:52:51;21.20;99.90
23748;DHT22;12054;53.662;10.126;2023-07-29T09:55:19;21.30;99.90
23748;DHT22;12054;53.662;10.126;2023-07-29T09:57:45;21.30;99.90
23748;DHT22;12054;53.662;10.126;2023-07-29T10:00:11;21.40;99.90
23748;DHT22;12054;53.662;10.126;2023-07-29T10:02:41;21.50;99.90
23748;DHT22;12054;53.662;10.126;2023-07-29T10:05:08;21.70;99.90
23748;DHT22;12054;53.662;10.126;2023-07-29T10:07:38;21.80;99.90
23748;DHT22;12054;53.662;10.126;2023-07-29T10:10:04;21.90;99.90
23748;DHT22;12054;53.662;10.126;2023-07-29T10:12:31;22.10;99.90
23748;DHT22;12054;53.662;10.126;2023-07-29T10:15:01;22.20;99.90
23748;DHT22;12054;53.662;10.126;2023-07-29T10:17:28;22.30;99.90
23748;DHT22;12054;53.662;10.126;2023-07-29T10:19:56;22.50;99.90
23748;DHT22;12054;53.662;10.126;2023-07-29T10:22:25;22.60;99.90
23748;DHT22;12054;53.662;10.126;2023-07-29T10:24:56;22.80;99.90
23748;DHT22;12054;53.662;10.126;2023-07-29T10:27:25;22.90;99.90
23748;DHT22;12054;53.662;10.126;2023-07-29T10:29:53;23.00;99.90
23748;DHT22;12054;53.662;10.126;2023-07-29T10:32:24;23.10;99.90
23748;DHT22;12054;53.662;10.126;2023-07-29T10:34:50;23.20;99.90
23748;DHT22;12054;53.662;10.126;2023-07-29T10:37:16;23.20;99.90
23748;DHT22;12054;53.662;10.126;2023-07-29T10:39:52;23.20;99.90
23748;DHT22;12054;53.662;10.126;2023-07-29T10:42:18;23.30;99.90
23748;DHT22;12054;53.662;10.126;2023-07-29T10:44:47;23.40;99.90
23748;DHT22;12054;53.662;10.126;2023-07-29T10:47:20;23.40;99.90
23748;DHT22;12054;53.662;10.126;2023-07-29T10:49:57;23.40;99.90
23748;DHT22;12054;53.662;10.126;2023-07-29T10:55:04;23.40;99.90
23748;DHT22;12054;53.662;10.126;2023-07-29T10:57:47;23.50;99.90
23748;DHT22;12054;53.662;10.126;2023-07-29T11:00:15;23.50;99.90
23748;DHT22;12054;53.662;10.126;2023-07-29T11:02:41;23.30;99.90
23748;DHT22;12054;53.662;10.126;2023-07-29T11:05:15;23.50;99.90
23748;DHT22;12054;53.662;10.126;2023-07-29T11:07:45;23.50;99.90
23748;DHT22;12054;53.662;10.126;2023-07-29T11:10:12;23.50;99.90
23748;DHT22;12054;53.662;10.126;2023-07-29T11:12:48;23.50;99.90
23748;DHT22;12054;53.662;10.126;2023-07-29T11:15:23;23.50;99.90
23748;DHT22;12054;53.662;10.126;2023-07-29T11:17:53;23.40;99.90
23748;DHT22;12054;53.662;10.126;2023-07-29T11:20:24;23.40;99.90
23748;DHT22;12054;53.662;10.126;2023-07-29T11:22:51;23.40;99.90
23748;DHT22;12054;53.662;10.126;2023-07-29T11:25:18;23.40;99.90
23748;DHT22;12054;53.662;10.126;2023-07-29T11:27:45;23.40;99.90
23748;DHT22;12054;53.662;10.126;2023-07-29T11:30:12;23.40;99.90
23748;DHT22;12054;53.662;10.126;2023-07-29T11:32:39;23.40;99.90
23748;DHT22;12054;53.662;10.126;2023-07-29T11:35:13;23.50;99.90
23748;DHT22;12054;53.662;10.126;2023-07-29T11:37:40;23.50;99.90
23748;DHT22;12054;53.662;10.126;2023-07-29T11:40:07;23.60;99.90
23748;DHT22;12054;53.662;10.126;2023-07-29T11:42:36;23.60;99.90
23748;DHT22;12054;53.662;10.126;2023-07-29T11:45:03;23.60;99.90
23748;DHT22;12054;53.662;10.126;2023-07-29T11:47:31;23.60;99.90
23748;DHT22;12054;53.662;10.126;2023-07-29T11:49:59;23.60;99.90
23748;DHT22;12054;53.662;10.126;2023-07-29T11:52:27;23.70;99.90
23748;DHT22;12054;53.662;10.126;2023-07-29T11:54:53;23.70;99.90
23748;DHT22;12054;53.662;10.126;2023-07-29T11:57:19;23.70;99.90
23748;DHT22;12054;53.662;10.126;2023-07-29T11:59:46;23.80;99.90
23748;DHT22;12054;53.662;10.126;2023-07-29T12:02:17;23.90;99.90
23748;DHT22;12054;53.662;10.126;2023-07-29T12:04:44;24.00;99.90
23748;DHT22;12054;53.662;10.126;2023-07-29T12:07:13;24.10;99.90
23748;DHT22;12054;53.662;10.126;2023-07-29T12:09:39;24.10;99.90
23748;DHT22;12054;53.662;10.126;2023-07-29T12:12:05;24.30;99.90
23748;DHT22;12054;53.662;10.126;2023-07-29T12:14:32;24.30;99.90
23748;DHT22;12054;53.662;10.126;2023-07-29T12:17:00;24.40;99.90
23748;DHT22;12054;53.662;10.126;2023-07-29T12:19:36;24.50;99.90
23748;DHT22;12054;53.662;10.126;2023-07-29T12:22:03;24.50;99.90
23748;DHT22;12054;53.662;10.126;2023-07-29T12:24:33;24.60;99.90
23748;DHT22;12054;53.662;10.126;2023-07-29T12:27:00;24.80;99.90
23748;DHT22;12054;53.662;10.126;2023-07-29T12:29:26;24.80;99.90
23748;DHT22;12054;53.662;10.126;2023-07-29T12:32:00;24.90;99.90
23748;DHT22;12054;53.662;10.126;2023-07-29T12:34:27;25.00;99.90
23748;DHT22;12054;53.662;10.126;2023-07-29T12:36:57;25.00;99.90
23748;DHT22;12054;53.662;10.126;2023-07-29T12:39:30;25.10;99.90
23748;DHT22;12054;53.662;10.126;2023-07-29T12:41:58;25.10;99.90
23748;DHT22;12054;53.662;10.126;2023-07-29T12:44:31;25.20;99.90
23748;DHT22;12054;53.662;10.126;2023-07-29T12:46:57;25.30;99.90
23748;DHT22;12054;53.662;10.126;2023-07-29T12:49:23;25.40;99.90
23748;DHT22;12054;53.662;10.126;2023-07-29T12:51:48;25.40;99.90
23748;DHT22;12054;53.662;10.126;2023-07-29T12:54:14;25.60;99.90
23748;DHT22;12054;53.662;10.126;2023-07-29T12:56:39;25.70;99.90
23748;DHT22;12054;53.662;10.126;2023-07-29T12:59:05;25.70;99.90
23748;DHT22;12054;53.662;10.126;2023-07-29T13:01:31;25.70;99.90
23748;DHT22;12054;53.662;10.126;2023-07-29T13:03:58;25.80;99.90
23748;DHT22;12054;53.662;10.126;2023-07-29T13:06:23;25.80;99.90
23748;DHT22;12054;53.662;10.126;2023-07-29T13:08:49;25.90;99.90
23748;DHT22;12054;53.662;10.126;2023-07-29T13:11:16;26.00;99.90
23748;DHT22;12054;53.662;10.126;2023-07-29T13:13:42;25.90;99.90
23748;DHT22;12054;53.662;10.126;2023-07-29T13:16:07;26.00;99.90
23748;DHT22;12054;53.662;10.126;2023-07-29T13:18:33;25.90;99.90
23748;DHT22;12054;53.662;10.126;2023-07-29T13:20:59;26.00;99.90
23748;DHT22;12054;53.662;10.126;2023-07-29T13:23:26;26.00;99.90
23748;DHT22;12054;53.662;10.126;2023-07-29T13:25:52;25.90;99.90
23748;DHT22;12054;53.662;10.126;2023-07-29T13:28:17;25.90;99.90
23748;DHT22;12054;53.662;10.126;2023-07-29T13:30:44;25.80;99.90
23748;DHT22;12054;53.662;10.126;2023-07-29T13:33:09;25.80;99.90
23748;DHT22;12054;53.662;10.126;2023-07-29T13:35:35;25.80;99.90
23748;DHT22;12054;53.662;10.126;2023-07-29T13:38:01;25.80;99.90
23748;DHT22;12054;53.662;10.126;2023-07-29T13:40:26;25.70;99.90
23748;DHT22;12054;53.662;10.126;2023-07-29T13:42:52;25.70;99.90
23748;DHT22;12054;53.662;10.126;2023-07-29T13:45:18;25.70;99.90
23748;DHT22;12054;53.662;10.126;2023-07-29T13:47:44;25.60;99.90
23748;DHT22;12054;53.662;10.126;2023-07-29T13:50:10;25.60;99.90
23748;DHT22;12054;53.662;10.126;2023-07-29T13:52:36;25.60;99.90
23748;DHT22;12054;53.662;10.126;2023-07-29T13:55:03;25.60;99.90
23748;DHT22;12054;53.662;10.126;2023-07-29T13:57:28;25.60;99.90
23748;DHT22;12054;53.662;10.126;2023-07-29T13:59:54;25.60;99.90
23748;DHT22;12054;53.662;10.126;2023-07-29T14:02:19;25.60;99.90
23748;DHT22;12054;53.662;10.126;2023-07-29T14:04:45;25.60;99.90
23748;DHT22;12054;53.662;10.126;2023-07-29T14:07:10;25.60;99.90
23748;DHT22;12054;53.662;10.126;2023-07-29T14:09:36;25.70;99.90
23748;DHT22;12054;53.662;10.126;2023-07-29T14:12:03;25.70;99.90
23748;DHT22;12054;53.662;10.126;2023-07-29T14:14:29;25.80;99.90
23748;DHT22;12054;53.662;10.126;2023-07-29T14:16:55;25.80;99.90
23748;DHT22;12054;53.662;10.126;2023-07-29T14:19:20;25.90;99.90
23748;DHT22;12054;53.662;10.126;2023-07-29T14:21:46;25.90;99.90
23748;DHT22;12054;53.662;10.126;2023-07-29T14:24:11;26.00;99.90
23748;DHT22;12054;53.662;10.126;2023-07-29T14:26:37;25.90;99.90
23748;DHT22;12054;53.662;10.126;2023-07-29T14:29:02;25.90;99.90
23748;DHT22;12054;53.662;10.126;2023-07-29T14:31:28;25.90;99.90
23748;DHT22;12054;53.662;10.126;2023-07-29T14:33:53;25.90;99.90
23748;DHT22;12054;53.662;10.126;2023-07-29T14:36:19;25.90;99.90
23748;DHT22;12054;53.662;10.126;2023-07-29T14:38:44;25.90;99.90
23748;DHT22;12054;53.662;10.126;2023-07-29T14:41:10;25.90;99.90
23748;DHT22;12054;53.662;10.126;2023-07-29T14:43:35;25.90;99.90
23748;DHT22;12054;53.662;10.126;2023-07-29T14:46:01;25.90;99.90
23748;DHT22;12054;53.662;10.126;2023-07-29T14:48:27;25.80;99.90
23748;DHT22;12054;53.662;10.126;2023-07-29T14:50:53;25.80;99.90
23748;DHT22;12054;53.662;10.126;2023-07-29T14:53:18;25.80;99.90
23748;DHT22;12054;53.662;10.126;2023-07-29T14:55:44;25.80;99.90
23748;DHT22;12054;53.662;10.126;2023-07-29T14:58:10;25.80;99.90
23748;DHT22;12054;53.662;10.126;2023-07-29T15:00:35;25.80;99.90
23748;DHT22;12054;53.662;10.126;2023-07-29T15:03:01;25.80;99.90
23748;DHT22;12054;53.662;10.126;2023-07-29T15:05:26;25.80;99.90
23748;DHT22;12054;53.662;10.126;2023-07-29T15:07:52;25.80;99.90
23748;DHT22;12054;53.662;10.126;2023-07-29T15:10:17;25.80;99.90
23748;DHT22;12054;53.662;10.126;2023-07-29T15:12:44;25.80;99.90
23748;DHT22;12054;53.662;10.126;2023-07-29T15:15:10;25.80;99.90
23748;DHT22;12054;53.662;10.126;2023-07-29T15:17:36;25.70;99.90
23748;DHT22;12054;53.662;10.126;2023-07-29T15:20:02;25.70;99.90